Time;durP1;ratioP1;P1;durP2;ratioP2;P2;SDS_P1;SDS_P2;PMS_P1;PMS_P2;Temp;Humidity;BMP_temperature;BMP_pressure;BME280_temperature;BME280_humidity;BME280_pressure;Samples;Min_cycle;Max_cycle;Signal;HPM_P1;HPM_P2
2023/08/06 00:00:09;;;;;;;1999.90;999.90;;;15.40;99.90;;;;;;5035406;28;20028;-70
2023/08/06 00:02:34;;;;;;;1999.90;999.90;;;15.40;99.90;;;;;;5035231;28;20030;-70
2023/08/06 00:05:00;;;;;;;1999.90;999.90;;;15.40;99.90;;;;;;5035218;28;20144;-70
2023/08/06 00:07:29;;;;;;;1999.90;999.90;;;15.40;99.90;;;;;;5035333;28;20021;-77
2023/08/06 00:09:54;;;;;;;1999.90;999.90;;;15.40;99.90;;;;;;5035513;28;20057;-77
2023/08/06 00:12:20;;;;;;;1999.90;999.90;;;15.30;99.90;;;;;;5035111;28;20060;-70
2023/08/06 00:14:50;;;;;;;1999.90;999.90;;;15.30;99.90;;;;;;5035389;28;20026;-70
2023/08/06 00:17:16;;;;;;;1999.90;999.90;;;15.30;99.90;;;;;;5054208;28;20399;-70
2023/08/06 00:19:41;;;;;;;1999.90;999.90;;;15.30;99.90;;;;;;5037194;28;20021;-77
2023/08/06 00:22:07;;;;;;;1999.90;999.90;;;15.30;99.90;;;;;;5049915;28;20021;-70
2023/08/06 00:24:34;;;;;;;1999.90;999.90;;;15.30;99.90;;;;;;5035025;28;20033;-70
2023/08/06 00:26:59;;;;;;;1999.90;999.90;;;15.30;99.90;;;;;;5034979;28;20022;-70
2023/08/06 00:29:25;;;;;;;1999.90;999.90;;;15.30;99.90;;;;;;5034719;28;20143;-70
2023/08/06 00:31:50;;;;;;;1999.90;999.90;;;15.30;99.90;;;;;;5035220;28;20473;-70
2023/08/06 00:34:16;;;;;;;1999.90;999.90;;;15.20;99.90;;;;;;5033753;28;20037;-70
2023/08/06 00:36:41;;;;;;;1999.90;999.90;;;15.30;99.90;;;;;;5015519;28;20022;-70
2023/08/06 00:39:07;;;;;;;1999.90;999.90;;;15.30;99.90;;;;;;5016886;28;20037;-69
2023/08/06 00:41:33;;;;;;;1999.90;999.90;;;15.30;99.90;;;;;;5034572;28;20103;-70
2023/08/06 00:43:58;;;;;;;1999.90;999.90;;;15.30;99.90;;;;;;5034558;28;20041;-70
2023/08/06 00:46:24;;;;;;;1999.90;999.90;;;15.20;99.90;;;;;;5034440;28;20396;-70
2023/08/06 00:48:51;;;;;;;1999.90;999.90;;;15.20;99.90;;;;;;5034732;28;20175;-70
2023/08/06 00:51:16;;;;;;;1999.90;999.90;;;15.20;99.90;;;;;;5016291;28;20116;-70
2023/08/06 00:53:42;;;;;;;1999.90;999.90;;;15.20;99.90;;;;;;5034328;28;20061;-70
2023/08/06 00:56:09;;;;;;;1999.90;999.90;;;15.20;99.90;;;;;;5016649;28;20029;-70
2023/08/06 00:58:36;;;;;;;1999.90;999.90;;;15.20;99.90;;;;;;5033665;28;20025;-70
2023/08/06 01:01:02;;;;;;;1999.90;999.90;;;15.20;99.90;;;;;;5016553;28;20079;-77
2023/08/06 01:03:27;;;;;;;1999.90;999.90;;;15.20;99.90;;;;;;5033858;28;20025;-71
2023/08/06 01:05:54;;;;;;;1999.90;999.90;;;15.20;99.90;;;;;;5034147;28;20038;-70
2023/08/06 01:08:26;;;;;;;1999.90;999.90;;;15.30;99.90;;;;;;5034184;28;20028;-70
2023/08/06 01:11:11;;;;;;;1999.90;999.90;;;15.20;99.90;;;;;;5034001;28;20025;-70
2023/08/06 01:13:46;;;;;;;1999.90;999.90;;;15.20;99.90;;;;;;5033976;28;20456;-70
2023/08/06 01:16:18;;;;;;;1999.90;999.90;;;15.20;99.90;;;;;;5033944;28;20052;-70
2023/08/06 01:18:46;;;;;;;1999.90;999.90;;;15.20;99.90;;;;;;5034345;28;20083;-70
2023/08/06 01:21:17;;;;;;;1999.90;999.90;;;15.20;99.90;;;;;;5033919;28;20025;-70
2023/08/06 01:23:44;;;;;;;1999.90;999.90;;;15.20;99.90;;;;;;5033628;28;20025;-70
2023/08/06 01:26:23;;;;;;;1999.90;999.90;;;15.20;99.90;;;;;;5034410;28;20346;-70
2023/08/06 01:29:06;;;;;;;1999.90;999.90;;;15.10;99.90;;;;;;5033792;28;20029;-71
2023/08/06 01:31:35;;;;;;;1999.90;999.90;;;15.10;99.90;;;;;;5033928;28;20037;-70
2023/08/06 01:34:01;;;;;;;1999.90;999.90;;;15.10;99.90;;;;;;5033592;28;20034;-70
2023/08/06 01:36:28;;;;;;;1999.90;999.90;;;15.10;99.90;;;;;;5033477;28;20493;-70
2023/08/06 01:38:54;;;;;;;1999.90;999.90;;;15.10;99.90;;;;;;5015496;28;20048;-70
2023/08/06 01:41:20;;;;;;;1999.90;999.90;;;15.10;99.90;;;;;;5033440;28;20029;-70
2023/08/06 01:43:46;;;;;;;1999.90;999.90;;;15.10;99.90;;;;;;5033495;28;20523;-70
2023/08/06 01:46:11;;;;;;;1999.90;999.90;;;15.10;99.90;;;;;;5033677;28;20018;-70
2023/08/06 01:48:37;;;;;;;1999.90;999.90;;;15.00;99.90;;;;;;5033558;28;20041;-70
2023/08/06 01:51:05;;;;;;;1999.90;999.90;;;15.00;99.90;;;;;;5033080;28;20678;-77
2023/08/06 01:53:31;;;;;;;1999.90;999.90;;;15.00;99.90;;;;;;5033180;28;20083;-77
2023/08/06 01:55:57;;;;;;;1999.90;999.90;;;15.00;99.90;;;;;;5032506;28;20036;-70
2023/08/06 01:58:23;;;;;;;1999.90;999.90;;;15.00;99.90;;;;;;5015504;28;20033;-70
2023/08/06 02:00:48;;;;;;;1999.90;999.90;;;14.90;99.90;;;;;;5033323;28;20029;-70
2023/08/06 02:03:14;;;;;;;1999.90;999.90;;;14.90;99.90;;;;;;5032859;28;20048;-70
2023/08/06 02:05:40;;;;;;;1999.90;999.90;;;14.90;99.90;;;;;;5033106;28;20030;-70
2023/08/06 02:08:06;;;;;;;1999.90;999.90;;;14.90;99.90;;;;;;5033058;28;20021;-70
2023/08/06 02:10:32;;;;;;;1999.90;999.90;;;14.90;99.90;;;;;;5033103;28;20095;-70
2023/08/06 02:12:57;;;;;;;1999.90;999.90;;;14.90;99.90;;;;;;5033431;28;20533;-70
2023/08/06 02:15:23;;;;;;;1999.90;999.90;;;14.90;99.90;;;;;;5015459;28;20088;-70
2023/08/06 02:17:48;;;;;;;1999.90;999.90;;;14.80;99.90;;;;;;5032397;28;20041;-70
2023/08/06 02:20:14;;;;;;;1999.90;999.90;;;14.80;99.90;;;;;;5033040;28;20033;-76
2023/08/06 02:22:40;;;;;;;1999.90;999.90;;;14.70;99.90;;;;;;5032974;28;20067;-70
2023/08/06 02:25:06;;;;;;;1999.90;999.90;;;14.70;99.90;;;;;;5033175;28;20491;-70
2023/08/06 02:27:31;;;;;;;1999.90;999.90;;;14.70;99.90;;;;;;5015039;28;20039;-70
2023/08/06 02:29:57;;;;;;;1999.90;999.90;;;14.70;99.90;;;;;;5032701;28;20148;-77
2023/08/06 02:32:22;;;;;;;1999.90;999.90;;;14.70;99.90;;;;;;5015163;28;20076;-70
2023/08/06 02:34:48;;;;;;;1999.90;999.90;;;14.70;99.90;;;;;;5032807;28;20080;-70
2023/08/06 02:37:13;;;;;;;1999.90;999.90;;;14.60;99.90;;;;;;5032893;28;20456;-70
2023/08/06 02:39:39;;;;;;;1999.90;999.90;;;14.60;99.90;;;;;;5037211;28;20033;-70
2023/08/06 02:42:08;;;;;;;1999.90;999.90;;;14.60;99.90;;;;;;5039330;28;20024;-70
2023/08/06 02:44:35;;;;;;;1999.90;999.90;;;14.60;99.90;;;;;;5039143;28;20054;-77
2023/08/06 02:47:01;;;;;;;1999.90;999.90;;;14.60;99.90;;;;;;5039328;28;20484;-70
2023/08/06 02:49:27;;;;;;;1999.90;999.90;;;14.60;99.90;;;;;;5039293;28;20030;-70
2023/08/06 02:51:52;;;;;;;1999.90;999.90;;;14.60;99.90;;;;;;5020599;28;20071;-70
2023/08/06 02:54:18;;;;;;;1999.90;999.90;;;14.50;99.90;;;;;;5039150;28;20500;-70
2023/08/06 02:56:45;;;;;;;1999.90;999.90;;;14.50;99.90;;;;;;5039483;28;20231;-77
2023/08/06 02:59:11;;;;;;;1999.90;999.90;;;14.50;99.90;;;;;;5039093;28;20423;-70
2023/08/06 03:01:37;;;;;;;1999.90;999.90;;;14.50;99.90;;;;;;5021407;28;20028;-70
2023/08/06 03:04:02;;;;;;;1999.90;999.90;;;14.50;99.90;;;;;;5021278;28;20045;-70
2023/08/06 03:06:28;;;;;;;1999.90;999.90;;;14.50;99.90;;;;;;5038806;28;20024;-70
2023/08/06 03:08:54;;;;;;;1999.90;999.90;;;14.50;99.90;;;;;;5021185;28;20443;-77
2023/08/06 03:11:20;;;;;;;1999.90;999.90;;;14.50;99.90;;;;;;5038948;28;20022;-70
2023/08/06 03:13:46;;;;;;;1999.90;999.90;;;14.50;99.90;;;;;;5021399;28;20488;-70
2023/08/06 03:16:12;;;;;;;1999.90;999.90;;;14.50;99.90;;;;;;5039049;28;20029;-70
2023/08/06 03:18:37;;;;;;;1999.90;999.90;;;14.50;99.90;;;;;;5038808;28;20034;-70
2023/08/06 03:21:03;;;;;;;1999.90;999.90;;;14.50;99.90;;;;;;5038270;28;20021;-70
2023/08/06 03:23:29;;;;;;;1999.90;999.90;;;14.50;99.90;;;;;;5038705;28;20113;-76
2023/08/06 03:25:54;;;;;;;1999.90;999.90;;;14.50;99.90;;;;;;5039001;28;20053;-70
2023/08/06 03:28:20;;;;;;;1999.90;999.90;;;14.50;99.90;;;;;;5038698;28;20025;-70
2023/08/06 03:30:45;;;;;;;1999.90;999.90;;;14.50;99.90;;;;;;5039082;28;20515;-70
2023/08/06 03:33:11;;;;;;;1999.90;999.90;;;14.50;99.90;;;;;;5038711;28;20026;-70
2023/08/06 03:35:37;;;;;;;1999.90;999.90;;;14.50;99.90;;;;;;5020935;28;20053;-76
2023/08/06 03:38:02;;;;;;;1999.90;999.90;;;14.50;99.90;;;;;;5039147;28;20026;-77
2023/08/06 03:40:28;;;;;;;1999.90;999.90;;;14.50;99.90;;;;;;5037967;28;20492;-70
2023/08/06 03:42:53;;;;;;;1999.90;999.90;;;14.50;99.90;;;;;;5038563;28;20037;-70
2023/08/06 03:45:19;;;;;;;1999.90;999.90;;;14.50;99.90;;;;;;5038670;28;20028;-70
2023/08/06 03:47:45;;;;;;;1999.90;999.90;;;14.40;99.90;;;;;;5038793;28;20032;-76
2023/08/06 03:50:10;;;;;;;1999.90;999.90;;;14.40;99.90;;;;;;5037095;28;20025;-70
2023/08/06 03:52:36;;;;;;;1999.90;999.90;;;14.40;99.90;;;;;;5035173;28;20022;-70
2023/08/06 03:55:02;;;;;;;1999.90;999.90;;;14.40;99.90;;;;;;5017842;28;20036;-70
2023/08/06 03:57:27;;;;;;;1999.90;999.90;;;14.40;99.90;;;;;;5035365;28;20143;-69
2023/08/06 03:59:53;;;;;;;1999.90;999.90;;;14.30;99.90;;;;;;5017892;28;20109;-70
2023/08/06 04:02:19;;;;;;;1999.90;999.90;;;14.30;99.90;;;;;;5035282;28;20480;-70
2023/08/06 04:04:44;;;;;;;1999.90;999.90;;;14.30;99.90;;;;;;5017616;28;20017;-70
2023/08/06 04:07:10;;;;;;;1999.90;999.90;;;14.40;99.90;;;;;;5035291;28;20095;-70
2023/08/06 04:09:52;;;;;;;1999.90;999.90;;;14.30;99.90;;;;;;5034941;28;20025;-70
2023/08/06 04:12:18;;;;;;;1999.90;999.90;;;14.30;99.90;;;;;;5035260;28;20026;-70
2023/08/06 04:14:43;;;;;;;1999.90;999.90;;;14.40;99.90;;;;;;5035251;28;20581;-77
2023/08/06 04:17:09;;;;;;;1999.90;999.90;;;14.40;99.90;;;;;;5017400;28;20033;-76
2023/08/06 04:19:35;;;;;;;1999.90;999.90;;;14.40;99.90;;;;;;5035590;28;20071;-70
2023/08/06 04:22:00;;;;;;;1999.90;999.90;;;14.30;99.90;;;;;;5034822;28;20021;-70
2023/08/06 04:24:26;;;;;;;1999.90;999.90;;;14.30;99.90;;;;;;5017158;28;20018;-70
2023/08/06 04:26:51;;;;;;;1999.90;999.90;;;14.30;99.90;;;;;;5035060;28;20370;-70
2023/08/06 04:29:17;;;;;;;1999.90;999.90;;;14.30;99.90;;;;;;5035045;28;20022;-70
2023/08/06 04:31:43;;;;;;;1999.90;999.90;;;14.20;99.90;;;;;;5035026;28;20029;-70
2023/08/06 04:34:09;;;;;;;1999.90;999.90;;;14.30;99.90;;;;;;5034945;28;20017;-70
2023/08/06 04:36:34;;;;;;;1999.90;999.90;;;14.20;99.90;;;;;;5034629;28;20389;-70
2023/08/06 04:39:00;;;;;;;1999.90;999.90;;;14.20;99.90;;;;;;5034623;28;20036;-70
2023/08/06 04:41:25;;;;;;;1999.90;999.90;;;14.20;99.90;;;;;;5034730;28;20040;-70
2023/08/06 04:43:51;;;;;;;1999.90;999.90;;;14.30;99.90;;;;;;5034622;28;20048;-70
2023/08/06 04:46:17;;;;;;;1999.90;999.90;;;14.30;99.90;;;;;;5034587;28;20377;-70
2023/08/06 04:48:42;;;;;;;1999.90;999.90;;;14.20;99.90;;;;;;5034741;28;20022;-70
2023/08/06 04:51:08;;;;;;;1999.90;999.90;;;14.30;99.90;;;;;;5034682;28;20029;-70
2023/08/06 04:53:33;;;;;;;1999.90;999.90;;;14.30;99.90;;;;;;5034488;28;20030;-70
2023/08/06 04:55:59;;;;;;;1999.90;999.90;;;14.30;99.90;;;;;;5034680;28;20025;-76
2023/08/06 04:58:24;;;;;;;1999.90;999.90;;;14.30;99.90;;;;;;5016488;28;20025;-70
2023/08/06 05:00:50;;;;;;;1999.90;999.90;;;14.30;99.90;;;;;;5034250;28;20500;-70
2023/08/06 05:03:16;;;;;;;1999.90;999.90;;;14.40;99.90;;;;;;5033789;28;20030;-70
2023/08/06 05:05:41;;;;;;;1999.90;999.90;;;14.30;99.90;;;;;;5034165;28;20052;-76
2023/08/06 05:08:07;;;;;;;1999.90;999.90;;;14.40;99.90;;;;;;5034510;28;20049;-77
2023/08/06 05:10:33;;;;;;;1999.90;999.90;;;14.40;99.90;;;;;;5033911;28;20032;-70
2023/08/06 05:12:58;;;;;;;1999.90;999.90;;;14.40;99.90;;;;;;5034197;28;20104;-70
2023/08/06 05:15:25;;;;;;;1999.90;999.90;;;14.40;99.90;;;;;;5033818;28;20045;-70
2023/08/06 05:17:51;;;;;;;1999.90;999.90;;;14.40;99.90;;;;;;5033983;28;20081;-70
2023/08/06 05:20:17;;;;;;;1999.90;999.90;;;14.40;99.90;;;;;;5016231;28;20147;-70
2023/08/06 05:22:43;;;;;;;1999.90;999.90;;;14.50;99.90;;;;;;5033750;28;20029;-70
2023/08/06 05:25:09;;;;;;;1999.90;999.90;;;14.50;99.90;;;;;;5033820;28;20085;-70
2023/08/06 05:27:34;;;;;;;1999.90;999.90;;;14.60;99.90;;;;;;5033773;28;20025;-70
2023/08/06 05:30:00;;;;;;;1999.90;999.90;;;14.60;99.90;;;;;;5033914;28;20072;-70
2023/08/06 05:32:26;;;;;;;1999.90;999.90;;;14.70;99.90;;;;;;5015975;28;20492;-70
2023/08/06 05:34:51;;;;;;;1999.90;999.90;;;14.70;99.90;;;;;;5033545;28;20030;-76
2023/08/06 05:37:17;;;;;;;1999.90;999.90;;;14.70;99.90;;;;;;5033723;28;20025;-70
2023/08/06 05:39:42;;;;;;;1999.90;999.90;;;14.80;99.90;;;;;;5015874;28;20025;-70
2023/08/06 05:42:08;;;;;;;1999.90;999.90;;;14.80;99.90;;;;;;5015860;28;20029;-70
2023/08/06 05:44:34;;;;;;;1999.90;999.90;;;14.80;99.90;;;;;;5012363;28;20504;-76
2023/08/06 05:46:59;;;;;;;1999.90;999.90;;;14.90;99.90;;;;;;5013571;28;20022;-76
2023/08/06 05:49:25;;;;;;;1999.90;999.90;;;15.00;99.90;;;;;;5013128;28;20557;-70
2023/08/06 05:51:53;;;;;;;1999.90;999.90;;;15.00;99.90;;;;;;5013745;28;20396;-70
2023/08/06 05:54:19;;;;;;;1999.90;999.90;;;15.00;99.90;;;;;;5013743;28;20124;-70
2023/08/06 05:56:45;;;;;;;1999.90;999.90;;;15.10;99.90;;;;;;5013691;28;20497;-70
2023/08/06 05:59:10;;;;;;;1999.90;999.90;;;15.10;99.90;;;;;;5013661;28;20120;-70
2023/08/06 06:01:36;;;;;;;1999.90;999.90;;;15.20;99.90;;;;;;5013422;28;20156;-70
2023/08/06 06:04:01;;;;;;;1999.90;999.90;;;15.30;99.90;;;;;;5013504;28;20473;-70
2023/08/06 06:06:27;;;;;;;1999.90;999.90;;;15.30;99.90;;;;;;5011968;28;20489;-70
2023/08/06 06:08:53;;;;;;;1999.90;999.90;;;15.40;99.90;;;;;;5012106;28;20521;-70
2023/08/06 06:11:21;;;;;;;1999.90;999.90;;;15.40;99.90;;;;;;5013264;28;20197;-76
2023/08/06 06:13:49;;;;;;;1999.90;999.90;;;15.50;99.90;;;;;;5012620;28;20022;-70
2023/08/06 06:16:14;;;;;;;1999.90;999.90;;;15.50;99.90;;;;;;5013325;28;20025;-70
2023/08/06 06:18:40;;;;;;;1999.90;999.90;;;15.60;99.90;;;;;;5011914;28;20084;-70
2023/08/06 06:21:05;;;;;;;1999.90;999.90;;;15.70;99.90;;;;;;5012872;28;20519;-70
2023/08/06 06:23:31;;;;;;;1999.90;999.90;;;15.70;99.90;;;;;;5012992;28;20041;-70
2023/08/06 06:25:56;;;;;;;1999.90;999.90;;;15.70;99.90;;;;;;5013138;28;20032;-76
2023/08/06 06:28:22;;;;;;;1999.90;999.90;;;15.80;99.90;;;;;;5011817;28;20040;-70
2023/08/06 06:30:48;;;;;;;1999.90;999.90;;;15.90;99.90;;;;;;5013030;28;20022;-70
2023/08/06 06:33:13;;;;;;;1999.90;999.90;;;16.00;99.90;;;;;;5011766;28;20041;-71
2023/08/06 06:35:39;;;;;;;1999.90;999.90;;;16.00;99.90;;;;;;5013034;28;20030;-70
2023/08/06 06:38:04;;;;;;;1999.90;999.90;;;16.10;99.90;;;;;;5027881;28;20397;-76
2023/08/06 06:40:30;;;;;;;1999.90;999.90;;;16.10;99.90;;;;;;5013056;28;20061;-70
2023/08/06 06:42:56;;;;;;;1999.90;999.90;;;16.10;99.90;;;;;;5016981;28;20037;-70
2023/08/06 06:45:21;;;;;;;1999.90;999.90;;;16.20;99.90;;;;;;5032684;28;20545;-71
2023/08/06 06:47:47;;;;;;;1999.90;999.90;;;16.30;99.90;;;;;;5032717;28;20029;-70
2023/08/06 06:50:13;;;;;;;1999.90;999.90;;;16.30;99.90;;;;;;5032792;28;20397;-70
2023/08/06 06:52:38;;;;;;;1999.90;999.90;;;16.40;99.90;;;;;;5014918;28;20056;-76
2023/08/06 06:55:04;;;;;;;1999.90;999.90;;;16.50;99.90;;;;;;5014846;28;20040;-71
2023/08/06 06:57:30;;;;;;;1999.90;999.90;;;16.50;99.90;;;;;;5014694;28;20511;-70
2023/08/06 06:59:56;;;;;;;1999.90;999.90;;;16.50;99.90;;;;;;5032553;28;20185;-70
2023/08/06 07:02:21;;;;;;;1999.90;999.90;;;16.60;99.90;;;;;;5032456;28;20033;-70
2023/08/06 07:04:47;;;;;;;1999.90;999.90;;;16.60;99.90;;;;;;5032634;28;20025;-70
2023/08/06 07:07:12;;;;;;;1999.90;999.90;;;16.70;99.90;;;;;;5032483;28;20017;-70
2023/08/06 07:09:38;;;;;;;1999.90;999.90;;;16.80;99.90;;;;;;5032355;28;20029;-70
2023/08/06 07:12:04;;;;;;;1999.90;999.90;;;16.90;99.90;;;;;;5032460;28;20026;-70
2023/08/06 07:14:30;;;;;;;1999.90;999.90;;;16.90;99.90;;;;;;5032222;28;20061;-70
2023/08/06 07:16:56;;;;;;;1999.90;999.90;;;17.00;99.90;;;;;;5032846;28;20029;-70
2023/08/06 07:19:21;;;;;;;1999.90;999.90;;;17.10;99.90;;;;;;5032237;28;20029;-71
2023/08/06 07:21:47;;;;;;;1999.90;999.90;;;17.10;99.90;;;;;;5014511;28;20083;-70
2023/08/06 07:24:12;;;;;;;1999.90;999.90;;;17.20;99.90;;;;;;5014446;28;20042;-71
2023/08/06 07:26:38;;;;;;;1999.90;999.90;;;17.20;99.90;;;;;;5035742;28;20024;-70
2023/08/06 07:29:04;;;;;;;1999.90;999.90;;;17.40;99.90;;;;;;5036019;28;20057;-77
2023/08/06 07:31:29;;;;;;;1999.90;999.90;;;17.50;99.90;;;;;;5036048;28;20060;-70
2023/08/06 07:33:55;;;;;;;1999.90;999.90;;;17.60;99.90;;;;;;5018185;28;20072;-71
2023/08/06 07:36:21;;;;;;;1999.90;999.90;;;17.70;99.90;;;;;;5035660;28;20547;-71
2023/08/06 07:38:48;;;;;;;1999.90;999.90;;;17.80;99.90;;;;;;5035902;28;20033;-71
2023/08/06 07:41:14;;;;;;;1999.90;999.90;;;17.90;99.90;;;;;;5035698;28;20026;-71
2023/08/06 07:43:39;;;;;;;1999.90;999.90;;;17.90;99.90;;;;;;5018785;28;20049;-77
2023/08/06 07:46:05;;;;;;;1999.90;999.90;;;18.00;99.90;;;;;;5036453;28;20033;-71
2023/08/06 07:48:31;;;;;;;1999.90;999.90;;;18.00;99.90;;;;;;5017890;28;20021;-71
2023/08/06 07:50:57;;;;;;;1999.90;999.90;;;18.40;99.90;;;;;;5017952;28;20014;-71
2023/08/06 07:53:23;;;;;;;1999.90;999.90;;;18.50;99.90;;;;;;5018000;28;20123;-76
2023/08/06 07:55:53;;;;;;;1999.90;999.90;;;19.10;99.90;;;;;;5018067;28;20065;-77
2023/08/06 07:58:20;;;;;;;1999.90;999.90;;;21.80;99.90;;;;;;5018352;28;20492;-78
2023/08/06 08:00:47;;;;;;;1999.90;999.90;;;23.30;99.90;;;;;;5035917;28;20032;-71
2023/08/06 08:03:13;;;;;;;1999.90;999.90;;;24.80;99.90;;;;;;5035398;28;20032;-71
2023/08/06 08:05:39;;;;;;;1999.90;999.90;;;25.30;99.90;;;;;;5035659;28;20575;-71
2023/08/06 08:08:05;;;;;;;1999.90;999.90;;;26.10;99.90;;;;;;5035823;28;20396;-78
2023/08/06 08:10:32;;;;;;;1999.90;999.90;;;26.70;99.90;;;;;;5017580;28;20017;-71
2023/08/06 08:12:58;;;;;;;1999.90;999.90;;;27.30;99.90;;;;;;5035654;28;20033;-71
2023/08/06 08:15:26;;;;;;;1999.90;999.90;;;27.60;99.90;;;;;;5017404;28;20051;-72
2023/08/06 08:17:52;;;;;;;1999.90;999.90;;;27.80;99.90;;;;;;5035472;28;20514;-71
2023/08/06 08:20:17;;;;;;;1999.90;999.90;;;28.80;99.90;;;;;;5035277;28;20024;-71
2023/08/06 08:22:43;;;;;;;1999.90;999.90;;;27.00;99.90;;;;;;5017912;28;20056;-71
2023/08/06 08:25:09;;;;;;;1999.90;999.90;;;27.30;99.90;;;;;;5035518;28;20032;-71
2023/08/06 08:27:34;;;;;;;1999.90;999.90;;;28.10;99.90;;;;;;5017175;28;20029;-72
2023/08/06 08:30:00;;;;;;;1999.90;999.90;;;28.10;99.90;;;;;;5035094;28;20065;-72
2023/08/06 08:32:25;;;;;;;1999.90;999.90;;;28.90;99.90;;;;;;5017353;28;20026;-72
2023/08/06 08:34:51;;;;;;;1999.90;999.90;;;28.00;99.90;;;;;;5040002;28;20064;-78
2023/08/06 08:37:17;;;;;;;1999.90;999.90;;;28.60;99.90;;;;;;5054722;28;20037;-72
2023/08/06 08:39:42;;;;;;;1999.90;999.90;;;28.80;99.10;;;;;;5037136;28;20021;-71
2023/08/06 08:42:10;;;;;;;1999.90;999.90;;;26.30;99.90;;;;;;5036956;28;20029;-72
2023/08/06 08:44:39;;;;;;;1999.90;999.90;;;27.10;99.90;;;;;;5054491;28;20069;-72
2023/08/06 08:47:10;;;;;;;1999.90;999.90;;;28.70;99.90;;;;;;5054978;28;20549;-78
2023/08/06 08:49:36;;;;;;;1999.90;999.90;;;29.60;99.80;;;;;;5036888;28;20104;-78
2023/08/06 08:52:06;;;;;;;1999.90;999.90;;;29.30;99.60;;;;;;5024265;28;20068;-72
2023/08/06 08:54:33;;;;;;;1999.90;999.90;;;28.20;99.90;;;;;;5034520;28;20488;-72
2023/08/06 08:56:59;;;;;;;1999.90;999.90;;;29.00;99.90;;;;;;5016665;28;20029;-71
2023/08/06 08:59:24;;;;;;;1999.90;999.90;;;25.90;99.90;;;;;;5034307;28;20029;-71
2023/08/06 09:01:51;;;;;;;1999.90;999.90;;;26.30;99.90;;;;;;5034332;28;20037;-71
2023/08/06 09:04:18;;;;;;;1999.90;999.90;;;25.30;99.90;;;;;;5034261;28;20033;-77
2023/08/06 09:06:50;;;;;;;1999.90;999.90;;;25.30;99.90;;;;;;5034149;28;20092;-71
2023/08/06 09:09:30;;;;;;;1999.90;999.90;;;26.70;99.90;;;;;;5033947;28;20018;-71
2023/08/06 09:12:00;;;;;;;1999.90;999.90;;;24.80;99.90;;;;;;5034023;28;20029;-70
2023/08/06 09:14:26;;;;;;;1999.90;999.90;;;22.40;99.90;;;;;;5016268;28;20081;-76
2023/08/06 09:16:52;;;;;;;1999.90;999.90;;;23.70;99.90;;;;;;5016194;28;20499;-71
2023/08/06 09:19:18;;;;;;;1999.90;999.90;;;25.70;99.90;;;;;;5033493;28;20029;-71
2023/08/06 09:21:48;;;;;;;1999.90;999.90;;;24.60;99.90;;;;;;5033379;28;20155;-70
2023/08/06 09:24:14;;;;;;;1999.90;999.90;;;25.50;99.90;;;;;;5015932;28;20128;-71
2023/08/06 09:26:41;;;;;;;1999.90;999.90;;;25.30;99.90;;;;;;5033804;28;20100;-77
2023/08/06 09:29:11;;;;;;;1999.90;999.90;;;26.80;99.90;;;;;;5016157;28;20108;-77
2023/08/06 09:31:43;;;;;;;1999.90;999.90;;;27.20;99.90;;;;;;5015891;28;20024;-70
2023/08/06 09:34:26;;;;;;;1999.90;999.90;;;25.50;99.90;;;;;;5033802;28;20420;-71
2023/08/06 09:36:53;;;;;;;1999.90;999.90;;;27.10;99.90;;;;;;5014091;28;20030;-71
2023/08/06 09:39:27;;;;;;;1999.90;999.90;;;26.00;99.90;;;;;;4996050;28;20103;-71
2023/08/06 09:41:59;;;;;;;1999.90;999.90;;;25.20;99.90;;;;;;5013902;28;20034;-71
2023/08/06 09:44:27;;;;;;;1999.90;999.90;;;25.70;99.90;;;;;;5013609;28;20050;-72
2023/08/06 09:46:57;;;;;;;1999.90;999.90;;;27.30;99.90;;;;;;4996134;28;20104;-71
2023/08/06 09:49:27;;;;;;;1999.90;999.90;;;27.20;99.90;;;;;;5012838;28;20138;-71
2023/08/06 09:51:55;;;;;;;1999.90;999.90;;;29.10;99.90;;;;;;5013549;28;20030;-77
2023/08/06 09:54:23;;;;;;;1999.90;999.90;;;30.10;99.90;;;;;;4996320;28;20406;-71
2023/08/06 09:56:48;;;;;;;1999.90;999.90;;;27.40;99.90;;;;;;5013471;28;20103;-71
2023/08/06 09:59:15;;;;;;;1999.90;999.90;;;28.30;99.90;;;;;;5013615;28;20058;-71
2023/08/06 10:01:41;;;;;;;1999.90;999.90;;;28.60;99.90;;;;;;5016431;28;20022;-71
2023/08/06 10:04:11;;;;;;;1999.90;999.90;;;26.60;99.90;;;;;;5033097;28;20108;-70
2023/08/06 10:06:37;;;;;;;1999.90;999.90;;;25.20;99.90;;;;;;5033133;28;20565;-77
2023/08/06 10:09:04;;;;;;;1999.90;999.90;;;24.40;99.90;;;;;;5033142;28;20022;-70
2023/08/06 10:11:30;;;;;;;1999.90;999.90;;;23.70;99.90;;;;;;5032873;28;20396;-70
2023/08/06 10:14:01;;;;;;;1999.90;999.90;;;22.40;99.90;;;;;;5033171;28;20027;-70
2023/08/06 10:16:28;;;;;;;1999.90;999.90;;;24.10;99.90;;;;;;5030730;28;20025;-71
2023/08/06 10:18:54;;;;;;;1999.90;999.90;;;26.70;99.90;;;;;;5032953;28;20036;-77
2023/08/06 10:21:21;;;;;;;1999.90;999.90;;;27.70;99.90;;;;;;5032878;28;20021;-71
2023/08/06 10:23:54;;;;;;;1999.90;999.90;;;28.10;99.90;;;;;;5032823;28;20052;-71
2023/08/06 10:26:20;;;;;;;1999.90;999.90;;;28.60;99.90;;;;;;5015084;28;20029;-70
2023/08/06 10:28:45;;;;;;;1999.90;999.90;;;27.30;99.90;;;;;;5015110;28;20404;-71
2023/08/06 10:31:11;;;;;;;1999.90;999.90;;;26.40;99.90;;;;;;5032664;28;20480;-72
2023/08/06 10:33:44;;;;;;;1999.90;999.90;;;26.70;99.90;;;;;;5032858;28;20433;-77
2023/08/06 10:36:10;;;;;;;1999.90;999.90;;;27.80;99.90;;;;;;5014863;28;20086;-71
2023/08/06 10:38:45;;;;;;;1999.90;999.90;;;28.00;99.90;;;;;;5032803;28;20036;-71
2023/08/06 10:41:16;;;;;;;1999.90;999.90;;;28.40;99.90;;;;;;5032875;28;20034;-71
2023/08/06 10:43:43;;;;;;;1999.90;999.90;;;27.30;99.90;;;;;;5014816;28;20056;-71
2023/08/06 10:46:28;;;;;;;1999.90;999.90;;;27.50;99.90;;;;;;5014762;28;20500;-71
2023/08/06 10:48:54;;;;;;;1999.90;999.90;;;28.10;99.90;;;;;;5032982;28;20111;-71
2023/08/06 10:51:19;;;;;;;1999.90;999.90;;;27.90;99.90;;;;;;5032527;28;20025;-71
2023/08/06 10:53:47;;;;;;;1999.90;999.90;;;27.30;99.90;;;;;;5032774;28;20485;-71
2023/08/06 10:56:17;;;;;;;1999.90;999.90;;;27.20;99.90;;;;;;5032819;28;20026;-70
2023/08/06 10:58:45;;;;;;;1999.90;999.90;;;27.40;99.90;;;;;;5032692;28;20029;-71
2023/08/06 11:01:11;;;;;;;1999.90;999.90;;;27.20;99.90;;;;;;5035813;28;20075;-77
2023/08/06 11:03:38;;;;;;;1999.90;999.90;;;27.10;99.90;;;;;;5018737;28;20504;-72
2023/08/06 11:06:04;;;;;;;1999.90;999.90;;;26.50;99.90;;;;;;5036638;28;20063;-71
2023/08/06 11:08:35;;;;;;;1999.90;999.90;;;26.80;99.90;;;;;;5018750;28;20025;-71
2023/08/06 11:11:14;;;;;;;1999.90;999.90;;;27.00;99.90;;;;;;5036243;28;20480;-71
2023/08/06 11:13:46;;;;;;;1999.90;999.90;;;26.90;99.90;;;;;;5036275;28;20492;-73
2023/08/06 11:16:13;;;;;;;1999.90;999.90;;;26.40;99.90;;;;;;5036372;28;20515;-71
2023/08/06 11:18:40;;;;;;;1999.90;999.90;;;25.70;99.90;;;;;;5036610;28;20037;-70
2023/08/06 11:21:07;;;;;;;1999.90;999.90;;;25.10;99.90;;;;;;5035786;28;20400;-70
2023/08/06 11:23:34;;;;;;;1999.90;999.90;;;25.90;99.90;;;;;;5035913;28;20139;-77
2023/08/06 11:26:00;;;;;;;1999.90;999.90;;;26.10;99.90;;;;;;5036375;28;20079;-78
2023/08/06 11:28:26;;;;;;;1999.90;999.90;;;26.10;99.90;;;;;;5018283;28;20036;-71
2023/08/06 11:30:53;;;;;;;1999.90;999.90;;;26.30;99.90;;;;;;5036421;28;20021;-70
2023/08/06 11:33:25;;;;;;;1999.90;999.90;;;26.20;99.90;;;;;;5035862;28;20485;-70
2023/08/06 11:35:51;;;;;;;1999.90;999.90;;;25.90;99.90;;;;;;5035856;28;20022;-70
2023/08/06 11:38:18;;;;;;;1999.90;999.90;;;25.90;99.90;;;;;;5035965;28;20408;-71
2023/08/06 11:40:45;;;;;;;1999.90;999.90;;;25.90;99.90;;;;;;5035990;28;20396;-72
2023/08/06 11:43:12;;;;;;;1999.90;999.90;;;27.00;99.90;;;;;;5035607;28;20057;-70
2023/08/06 11:45:38;;;;;;;1999.90;999.90;;;26.60;99.90;;;;;;5036071;28;20033;-70
2023/08/06 11:48:05;;;;;;;1999.90;999.90;;;26.60;99.90;;;;;;5035681;28;20029;-71
2023/08/06 11:50:30;;;;;;;1999.90;999.90;;;26.00;99.90;;;;;;5035810;28;20366;-77
2023/08/06 11:53:00;;;;;;;1999.90;999.90;;;25.50;99.90;;;;;;5035757;28;20036;-70
2023/08/06 11:55:30;;;;;;;1999.90;999.90;;;24.80;99.90;;;;;;5017784;28;20022;-70